AirNav   Air Wisconsin Up To $57,000 Bonus
 
 652 users online  

2CA4 Blackinton Airport
Valley Center, California, USA

GOING TO VALLEY CENTER?


FAA INFORMATION EFFECTIVE 22 APRIL 2021

Location

FAA Identifier: 2CA4
Lat/Long: 33-15-32.1260N 117-05-32.1120W
33-15.535433N 117-05.535200W
33.2589239,-117.0922533
(estimated)
Elevation: 1156 ft. / 352 m (estimated)
Variation: 13E (1985)
From city: 4 miles NW of VALLEY CENTER, CA
Time zone: UTC -7 (UTC -8 during Standard Time)
Zip code: 92082

Airport Operations

Airport use: Private use. Permission required prior to landing
Activation date: 10/1966
Control tower: no
ARTCC: LOS ANGELES CENTER
FSS: SAN DIEGO FLIGHT SERVICE STATION
Attendance: UNATNDD
Wind indicator: yes
Segmented circle: yes

Airport Communications

WX AWOS-3P at L18 (10 nm NW): 118.425 (760-723-6073)
WX ASOS at CRQ (12 nm SW): PHONE 760-930-0864
WX ASOS at OKB (13 nm W): 127.8 (760-439-9683)
WX ASOS at RNM (16 nm SE): PHONE 760-789-7699
WX AWOS-3 at F70 (19 nm N): 119.025 (951-696-1018)

Nearby radio navigation aids

VOR radial/distance  VOR name  Freq  Var
OCNr071/16.4OCEANSIDE VORTAC115.3015E
JLIr271/26.4JULIAN VORTAC114.0015E
MZBr358/29.4MISSION BAY VORTAC117.8015E
HDFr157/(31.4)HOMELAND VOR113.4014E
PGYr338/39.3POGGI VORTAC116.4514E

Airport Services

Runway Information

Runway 17/35

Dimensions: 2200 x 50 ft. / 671 x 15 m
Surface: asphalt, in good condition
RUNWAY 17  RUNWAY 35
Traffic pattern: leftleft
Displaced threshold: no130 ft.
Markings: nonprecisionnonprecision
Obstructions: noneplines road

Airport Ownership and Management from official FAA records

Ownership: Privately-owned
Owner: BLACKINTON AIRPORT HOA
30114 AIRFLIGHT DRIVE
VALLEY CENTER, CA 92082
Phone (760) 533-6077
Manager: PETER GORMAN
30210 AIRFLIGHT DRIVE
VALLEY CENTER, CA 92082
Phone (760) 533-6077

Airport Operational Statistics

Aircraft based on the field: 12
Single engine airplanes: 12
    

Additional Remarks

LAND RWY 35, TKOF RWY 17.
FOR CD CTC LOS ANGELES ARTCC AT 661-575-2079.

Instrument Procedures

There are no published instrument procedures at 2CA4.

Some nearby airports with instrument procedures:

L18 - Fallbrook Community Airpark (10 nm NW)
KCRQ - Mc Clellan-Palomar Airport (12 nm SW)
KOKB - Bob Maxwell Memorial Airfield (13 nm W)
KNFG - Camp Pendleton MCAS (Munn Field) Airport (13 nm W)
KRNM - Ramona Airport (16 nm SE)
F70 - French Valley Airport (19 nm N)
 
Loc | Ops | Rwys | IFR | FBO | Links
Com | Nav | Svcs | Stats | Notes
Area around 2CA4 (Blackinton Airport)
 
Road maps at: MapQuest Bing Google
 
Aerial photo
WARNING: Photo may not be current or correct
Aerial photo of 2CA4 (Blackinton Airport)
Photo by Susan Wilson
Photo taken 28-Feb-2011
looking north.

Do you have a better or more recent aerial photo of Blackinton Airport that you would like to share? If so, please send us your photo.

 
Sectional chart

 
Airport distance calculator
Flying to Blackinton Airport? Find the distance to fly.

From to 2CA4

Sunrise and sunset
Times for 11-May-2021
 Local
(UTC-7)
 Zulu
(UTC)
Morning civil twilight05:2512:25
Sunrise05:5212:52
Sunset19:3702:37
Evening civil twilight20:0403:04

Current date and time
Zulu (UTC)  12-May-2021 04:43:55
Local (UTC-7)  11-May-2021 21:43:55
 
METAR
KL18 
10nm NW 
120415Z AUTO 00000KT 10SM OVC010 14/13 A2997 RMK AO2
KNFG 
12nm W 
120355Z AUTO 00000KT 10SM OVC016 18/13 A2996 RMK AO2 SLP143 T01780128
KCRQ 
12nm SW 
120353Z 00000KT 10SM OVC012 16/12 A2995 RMK AO2 SLP141 T01560117
KOKB 
13nm W 
120352Z AUTO 00000KT 10SM OVC014 16/13 A2995 RMK AO2 SLP142 T01610128
KRNM 
16nm SE 
120353Z AUTO 29005KT 10SM CLR 12/10 A2996 RMK AO2 SLP140 T01170100
KNXF 
18nm W 
120356Z AUTO 00000KT 10SM OVC014 A2996 RMK AO2 SLPNO $
KF70 
19nm N 
120415Z AUTO 00000KT 10SM CLR 15/12 A2997 RMK AO1
TAF
KNFG 
12nm W 
1203/1303 VRB05KT 9999 BKN020 QNH2993INS BECMG 1206/1208 VRB05KT 9999 OVC010 QNH2996INS BECMG 1218/1220 22010KT 9999 FEW020 QNH2999INS T13/1214Z T23/1221Z
KCRQ 
12nm SW 
112137Z 1122/1218 26009KT P6SM SCT020 TEMPO 1122/1124 BKN020 FM120200 VRB04KT P6SM OVC013
NOTAMs
Click for the latest NOTAMs
NOTAMs are issued by the DoD/FAA and will open in a separate window not controlled by AirNav.

 

 
 

Would you like to see your business listed on this page?

 If your business provides an interesting product or service to pilots, flight crews, aircraft, or users of the Blackinton Airport, you should consider listing it here.  To start the listing process, click on the button below
 
Add a business
 

Other Pages about Blackinton Airport

Update a link
 
Copyright © AirNav, LLC. All rights reserved. Privacy Policy  Contact